CheckWX is a tool to help pilots better visualize weather data.  It is not intended as a substitute for an official pre-flight weather briefing.

05:59:53 UTC

KBEC METAR
Beech Factory Airport
Wichita, Kansas, USA
Current

25 mins ago

KBEC 200535Z AUTO 13004KT 10SM CLR 10/05 A2983 RMK AO2 T00950046
Observed
Oct-20 @ 05:35 UTC
Wind
  • 130° at 4 KTS
Visibility
10 SM
Flight Rules
VFR
Cloud Levels
  • Clear skies
Temperature
10°C / 50°F
Dewpoint
C / 41°F
Humidity
71%
Altimeter
29.83" Hg
Pressure
1010.12 hPa
Previous

45 mins ago

KBEC 200515Z AUTO 00000KT 10SM CLR 10/05 A2984 RMK AO2 T00980045
Observed
Oct-20 @ 05:15 UTC
Visibility
10 SM
Flight Rules
VFR
Cloud Levels
  • Clear skies
Temperature
10°C / 50°F
Dewpoint
C / 41°F
Humidity
71%
Altimeter
29.84" Hg
Pressure
1010.52 hPa
Previous

1 hour ago

KBEC 200455Z AUTO 00000KT 10SM CLR 10/06 A2984 RMK AO2 T00970056
Observed
Oct-20 @ 04:55 UTC
Visibility
10 SM
Flight Rules
VFR
Cloud Levels
  • Clear skies
Temperature
10°C / 50°F
Dewpoint
C / 43°F
Humidity
76%
Altimeter
29.84" Hg
Pressure
1010.52 hPa